sensor_id;sensor_type;location;lat;lon;timestamp;P1;durP1;ratioP1;P2;durP2;ratioP2
52740;SDS011;38634;52.138;9.912;2023-01-01T00:02:33;16.02;;;3.35;;
52740;SDS011;38634;52.138;9.912;2023-01-01T00:05:18;17.90;;;4.15;;
52740;SDS011;38634;52.138;9.912;2023-01-01T00:08:03;16.08;;;2.83;;
52740;SDS011;38634;52.138;9.912;2023-01-01T00:10:47;12.80;;;3.22;;
52740;SDS011;38634;52.138;9.912;2023-01-01T00:13:32;15.65;;;3.00;;
52740;SDS011;38634;52.138;9.912;2023-01-01T00:16:17;16.92;;;3.30;;
52740;SDS011;38634;52.138;9.912;2023-01-01T00:19:02;13.85;;;2.80;;
52740;SDS011;38634;52.138;9.912;2023-01-01T00:21:47;18.63;;;5.43;;
52740;SDS011;38634;52.138;9.912;2023-01-01T00:24:32;20.50;;;5.95;;
52740;SDS011;38634;52.138;9.912;2023-01-01T00:27:16;16.73;;;4.03;;
52740;SDS011;38634;52.138;9.912;2023-01-01T00:30:01;29.15;;;5.80;;
52740;SDS011;38634;52.138;9.912;2023-01-01T00:32:46;21.75;;;4.60;;
52740;SDS011;38634;52.138;9.912;2023-01-01T00:35:31;19.60;;;3.38;;
52740;SDS011;38634;52.138;9.912;2023-01-01T00:38:16;18.85;;;3.47;;
52740;SDS011;38634;52.138;9.912;2023-01-01T00:41:01;16.05;;;2.85;;
52740;SDS011;38634;52.138;9.912;2023-01-01T00:43:46;11.80;;;3.10;;
52740;SDS011;38634;52.138;9.912;2023-01-01T00:46:30;15.63;;;3.50;;
52740;SDS011;38634;52.138;9.912;2023-01-01T00:49:15;15.30;;;2.90;;
52740;SDS011;38634;52.138;9.912;2023-01-01T00:52:00;17.08;;;3.63;;
52740;SDS011;38634;52.138;9.912;2023-01-01T00:54:44;16.13;;;3.95;;
52740;SDS011;38634;52.138;9.912;2023-01-01T00:57:29;18.65;;;3.88;;
52740;SDS011;38634;52.138;9.912;2023-01-01T01:00:13;14.52;;;2.55;;
52740;SDS011;38634;52.138;9.912;2023-01-01T01:02:59;18.10;;;3.20;;
52740;SDS011;38634;52.138;9.912;2023-01-01T01:05:44;16.92;;;2.90;;
52740;SDS011;38634;52.138;9.912;2023-01-01T01:08:34;21.67;;;4.40;;
52740;SDS011;38634;52.138;9.912;2023-01-01T01:11:23;26.13;;;5.68;;
52740;SDS011;38634;52.138;9.912;2023-01-01T01:14:08;17.80;;;3.10;;
52740;SDS011;38634;52.138;9.912;2023-01-01T01:16:52;20.27;;;3.58;;
52740;SDS011;38634;52.138;9.912;2023-01-01T01:19:37;18.50;;;3.47;;
52740;SDS011;38634;52.138;9.912;2023-01-01T01:22:22;12.70;;;2.55;;
52740;SDS011;38634;52.138;9.912;2023-01-01T01:25:06;15.25;;;3.03;;
52740;SDS011;38634;52.138;9.912;2023-01-01T01:27:51;17.13;;;3.40;;
52740;SDS011;38634;52.138;9.912;2023-01-01T01:30:36;17.33;;;2.95;;
52740;SDS011;38634;52.138;9.912;2023-01-01T01:33:22;16.80;;;2.70;;
52740;SDS011;38634;52.138;9.912;2023-01-01T01:36:07;15.82;;;2.95;;
52740;SDS011;38634;52.138;9.912;2023-01-01T01:38:53;16.88;;;3.22;;
52740;SDS011;38634;52.138;9.912;2023-01-01T01:41:38;17.23;;;3.20;;
52740;SDS011;38634;52.138;9.912;2023-01-01T01:53:24;14.35;;;2.75;;
52740;SDS011;38634;52.138;9.912;2023-01-01T01:56:12;20.77;;;3.55;;
52740;SDS011;38634;52.138;9.912;2023-01-01T01:59:00;18.35;;;3.67;;
52740;SDS011;38634;52.138;9.912;2023-01-01T02:01:45;17.35;;;3.13;;
52740;SDS011;38634;52.138;9.912;2023-01-01T02:04:30;15.48;;;3.22;;
52740;SDS011;38634;52.138;9.912;2023-01-01T02:07:15;15.98;;;3.35;;
52740;SDS011;38634;52.138;9.912;2023-01-01T02:10:00;20.40;;;5.03;;
52740;SDS011;38634;52.138;9.912;2023-01-01T02:12:45;17.05;;;3.33;;
52740;SDS011;38634;52.138;9.912;2023-01-01T02:15:33;14.18;;;2.90;;
52740;SDS011;38634;52.138;9.912;2023-01-01T02:18:38;19.65;;;4.38;;
52740;SDS011;38634;52.138;9.912;2023-01-01T11:00:24;15.65;;;4.25;;
52740;SDS011;38634;52.138;9.912;2023-01-01T11:03:13;15.10;;;3.30;;
52740;SDS011;38634;52.138;9.912;2023-01-01T11:06:17;9.43;;;2.40;;
52740;SDS011;38634;52.138;9.912;2023-01-01T11:09:05;9.18;;;2.80;;
52740;SDS011;38634;52.138;9.912;2023-01-01T11:12:05;7.05;;;2.10;;
52740;SDS011;38634;52.138;9.912;2023-01-01T11:14:52;12.07;;;3.17;;
52740;SDS011;38634;52.138;9.912;2023-01-01T11:17:38;12.60;;;2.92;;
52740;SDS011;38634;52.138;9.912;2023-01-01T11:20:22;10.40;;;2.60;;
52740;SDS011;38634;52.138;9.912;2023-01-01T11:24:14;11.75;;;3.15;;
52740;SDS011;38634;52.138;9.912;2023-01-01T11:26:22;7.85;;;2.38;;
52740;SDS011;38634;52.138;9.912;2023-01-01T11:29:17;10.80;;;2.80;;
52740;SDS011;38634;52.138;9.912;2023-01-01T11:32:11;12.25;;;3.03;;
52740;SDS011;38634;52.138;9.912;2023-01-01T11:35:05;10.75;;;2.67;;
52740;SDS011;38634;52.138;9.912;2023-01-01T11:38:03;11.18;;;2.55;;
52740;SDS011;38634;52.138;9.912;2023-01-01T11:40:49;12.40;;;3.15;;
52740;SDS011;38634;52.138;9.912;2023-01-01T11:43:39;11.20;;;2.90;;
52740;SDS011;38634;52.138;9.912;2023-01-01T11:46:27;10.63;;;2.72;;
52740;SDS011;38634;52.138;9.912;2023-01-01T11:49:13;11.00;;;2.70;;
52740;SDS011;38634;52.138;9.912;2023-01-01T11:51:58;11.38;;;2.85;;
52740;SDS011;38634;52.138;9.912;2023-01-01T11:54:43;10.88;;;2.95;;
52740;SDS011;38634;52.138;9.912;2023-01-01T11:57:29;10.70;;;2.78;;
52740;SDS011;38634;52.138;9.912;2023-01-01T12:00:14;10.07;;;2.78;;
52740;SDS011;38634;52.138;9.912;2023-01-01T12:06:07;10.60;;;2.92;;
52740;SDS011;38634;52.138;9.912;2023-01-01T12:12:30;10.95;;;3.08;;
52740;SDS011;38634;52.138;9.912;2023-01-01T12:15:30;9.50;;;2.88;;
52740;SDS011;38634;52.138;9.912;2023-01-01T12:21:29;9.23;;;2.50;;
52740;SDS011;38634;52.138;9.912;2023-01-01T12:24:16;10.05;;;2.40;;
52740;SDS011;38634;52.138;9.912;2023-01-01T12:36:31;13.75;;;3.00;;
52740;SDS011;38634;52.138;9.912;2023-01-01T12:43:03;12.55;;;2.92;;
52740;SDS011;38634;52.138;9.912;2023-01-01T12:53:06;10.93;;;2.70;;
52740;SDS011;38634;52.138;9.912;2023-01-01T12:59:01;13.18;;;3.17;;
52740;SDS011;38634;52.138;9.912;2023-01-01T13:01:56;12.07;;;2.72;;
52740;SDS011;38634;52.138;9.912;2023-01-01T13:04:43;12.63;;;2.65;;
52740;SDS011;38634;52.138;9.912;2023-01-01T13:07:30;10.50;;;2.75;;
52740;SDS011;38634;52.138;9.912;2023-01-01T13:10:41;12.27;;;3.10;;
52740;SDS011;38634;52.138;9.912;2023-01-01T13:13:28;9.18;;;2.28;;
52740;SDS011;38634;52.138;9.912;2023-01-01T13:16:12;11.90;;;3.03;;
52740;SDS011;38634;52.138;9.912;2023-01-01T13:19:23;10.60;;;2.67;;
52740;SDS011;38634;52.138;9.912;2023-01-01T13:33:28;13.70;;;3.05;;
52740;SDS011;38634;52.138;9.912;2023-01-01T13:39:01;11.15;;;2.50;;
52740;SDS011;38634;52.138;9.912;2023-01-01T13:41:46;12.38;;;2.63;;
52740;SDS011;38634;52.138;9.912;2023-01-01T13:44:31;12.82;;;3.17;;
52740;SDS011;38634;52.138;9.912;2023-01-01T13:59:22;13.68;;;2.92;;
52740;SDS011;38634;52.138;9.912;2023-01-01T14:02:32;13.75;;;3.15;;
52740;SDS011;38634;52.138;9.912;2023-01-01T14:05:36;10.75;;;2.70;;
52740;SDS011;38634;52.138;9.912;2023-01-01T14:09:01;12.95;;;3.35;;
52740;SDS011;38634;52.138;9.912;2023-01-01T14:12:06;12.45;;;3.30;;
52740;SDS011;38634;52.138;9.912;2023-01-01T14:14:56;7.45;;;2.15;;
52740;SDS011;38634;52.138;9.912;2023-01-01T14:17:41;13.27;;;3.00;;
52740;SDS011;38634;52.138;9.912;2023-01-01T14:20:29;8.80;;;2.40;;
52740;SDS011;38634;52.138;9.912;2023-01-01T14:26:09;21.38;;;5.63;;
52740;SDS011;38634;52.138;9.912;2023-01-01T14:28:58;20.90;;;5.50;;
52740;SDS011;38634;52.138;9.912;2023-01-01T14:31:46;16.77;;;4.72;;
52740;SDS011;38634;52.138;9.912;2023-01-01T14:34:31;29.15;;;6.60;;
52740;SDS011;38634;52.138;9.912;2023-01-01T14:37:18;37.65;;;7.85;;
52740;SDS011;38634;52.138;9.912;2023-01-01T14:40:21;12.23;;;3.90;;
52740;SDS011;38634;52.138;9.912;2023-01-01T14:43:11;24.10;;;5.93;;
52740;SDS011;38634;52.138;9.912;2023-01-01T14:45:56;21.83;;;5.38;;
52740;SDS011;38634;52.138;9.912;2023-01-01T14:48:42;26.88;;;6.40;;
52740;SDS011;38634;52.138;9.912;2023-01-01T14:51:33;48.03;;;9.30;;
52740;SDS011;38634;52.138;9.912;2023-01-01T14:54:18;24.27;;;5.68;;
52740;SDS011;38634;52.138;9.912;2023-01-01T14:57:17;21.23;;;6.32;;
52740;SDS011;38634;52.138;9.912;2023-01-01T15:00:22;23.70;;;5.38;;
52740;SDS011;38634;52.138;9.912;2023-01-01T15:03:14;30.20;;;6.93;;
52740;SDS011;38634;52.138;9.912;2023-01-01T15:06:04;36.10;;;7.13;;
52740;SDS011;38634;52.138;9.912;2023-01-01T15:08:59;35.08;;;6.75;;
52740;SDS011;38634;52.138;9.912;2023-01-01T15:11:46;15.30;;;4.00;;
52740;SDS011;38634;52.138;9.912;2023-01-01T15:14:36;33.53;;;7.15;;
52740;SDS011;38634;52.138;9.912;2023-01-01T15:17:25;36.90;;;7.25;;
52740;SDS011;38634;52.138;9.912;2023-01-01T15:20:20;19.80;;;5.05;;
52740;SDS011;38634;52.138;9.912;2023-01-01T15:23:11;44.92;;;8.65;;
52740;SDS011;38634;52.138;9.912;2023-01-01T15:25:58;17.77;;;5.05;;
52740;SDS011;38634;52.138;9.912;2023-01-01T15:28:42;28.80;;;6.82;;
52740;SDS011;38634;52.138;9.912;2023-01-01T15:31:32;51.67;;;9.73;;
52740;SDS011;38634;52.138;9.912;2023-01-01T15:34:30;21.55;;;5.30;;
52740;SDS011;38634;52.138;9.912;2023-01-01T15:37:18;48.10;;;9.38;;
52740;SDS011;38634;52.138;9.912;2023-01-01T15:45:49;48.03;;;9.55;;
52740;SDS011;38634;52.138;9.912;2023-01-01T15:48:57;36.10;;;7.70;;
52740;SDS011;38634;52.138;9.912;2023-01-01T15:51:42;21.42;;;5.35;;
52740;SDS011;38634;52.138;9.912;2023-01-01T15:54:27;25.67;;;5.88;;
52740;SDS011;38634;52.138;9.912;2023-01-01T15:57:14;30.38;;;6.63;;
52740;SDS011;38634;52.138;9.912;2023-01-01T16:00:05;24.77;;;5.47;;
52740;SDS011;38634;52.138;9.912;2023-01-01T16:03:01;34.75;;;7.45;;
52740;SDS011;38634;52.138;9.912;2023-01-01T16:06:00;23.25;;;5.45;;
52740;SDS011;38634;52.138;9.912;2023-01-01T16:08:44;26.15;;;6.57;;
52740;SDS011;38634;52.138;9.912;2023-01-01T16:11:29;41.53;;;8.77;;
52740;SDS011;38634;52.138;9.912;2023-01-01T16:14:14;47.42;;;9.48;;
52740;SDS011;38634;52.138;9.912;2023-01-01T16:16:59;27.58;;;6.55;;
52740;SDS011;38634;52.138;9.912;2023-01-01T16:19:44;14.32;;;4.18;;
52740;SDS011;38634;52.138;9.912;2023-01-01T16:22:30;32.25;;;7.20;;
52740;SDS011;38634;52.138;9.912;2023-01-01T16:25:16;45.85;;;8.57;;
52740;SDS011;38634;52.138;9.912;2023-01-01T16:28:03;30.48;;;7.05;;
52740;SDS011;38634;52.138;9.912;2023-01-01T16:30:52;25.23;;;5.85;;
52740;SDS011;38634;52.138;9.912;2023-01-01T16:33:37;39.85;;;8.05;;
52740;SDS011;38634;52.138;9.912;2023-01-01T16:36:21;33.95;;;6.53;;
52740;SDS011;38634;52.138;9.912;2023-01-01T16:39:06;31.08;;;7.20;;
52740;SDS011;38634;52.138;9.912;2023-01-01T16:41:51;18.60;;;5.35;;
52740;SDS011;38634;52.138;9.912;2023-01-01T16:44:37;25.42;;;5.95;;
52740;SDS011;38634;52.138;9.912;2023-01-01T16:47:24;29.70;;;6.85;;
52740;SDS011;38634;52.138;9.912;2023-01-01T16:50:09;26.83;;;5.88;;
52740;SDS011;38634;52.138;9.912;2023-01-01T16:52:55;11.75;;;4.05;;
52740;SDS011;38634;52.138;9.912;2023-01-01T16:55:39;30.42;;;7.22;;
52740;SDS011;38634;52.138;9.912;2023-01-01T16:58:23;47.28;;;9.77;;
52740;SDS011;38634;52.138;9.912;2023-01-01T17:01:08;44.65;;;8.57;;
52740;SDS011;38634;52.138;9.912;2023-01-01T17:03:53;25.17;;;7.05;;
52740;SDS011;38634;52.138;9.912;2023-01-01T17:06:38;22.75;;;5.13;;
52740;SDS011;38634;52.138;9.912;2023-01-01T17:09:23;43.92;;;8.48;;
52740;SDS011;38634;52.138;9.912;2023-01-01T17:12:07;46.95;;;8.73;;
52740;SDS011;38634;52.138;9.912;2023-01-01T17:14:52;37.85;;;8.02;;
52740;SDS011;38634;52.138;9.912;2023-01-01T17:17:36;26.80;;;6.40;;
52740;SDS011;38634;52.138;9.912;2023-01-01T17:20:21;29.30;;;6.38;;
52740;SDS011;38634;52.138;9.912;2023-01-01T17:23:08;46.03;;;9.00;;
52740;SDS011;38634;52.138;9.912;2023-01-01T17:26:01;25.35;;;6.05;;
52740;SDS011;38634;52.138;9.912;2023-01-01T17:29:07;31.77;;;7.35;;
52740;SDS011;38634;52.138;9.912;2023-01-01T17:32:08;32.45;;;6.90;;
52740;SDS011;38634;52.138;9.912;2023-01-01T17:34:56;15.98;;;4.28;;
52740;SDS011;38634;52.138;9.912;2023-01-01T17:37:42;12.50;;;3.25;;
52740;SDS011;38634;52.138;9.912;2023-01-01T17:40:27;29.02;;;6.50;;
52740;SDS011;38634;52.138;9.912;2023-01-01T17:43:15;30.15;;;6.45;;
52740;SDS011;38634;52.138;9.912;2023-01-01T17:46:07;16.45;;;4.47;;
52740;SDS011;38634;52.138;9.912;2023-01-01T17:48:58;37.63;;;8.25;;
52740;SDS011;38634;52.138;9.912;2023-01-01T17:51:52;24.65;;;6.28;;
52740;SDS011;38634;52.138;9.912;2023-01-01T17:54:37;28.67;;;6.00;;
52740;SDS011;38634;52.138;9.912;2023-01-01T17:57:22;36.38;;;7.40;;
52740;SDS011;38634;52.138;9.912;2023-01-01T18:00:11;17.13;;;4.70;;
52740;SDS011;38634;52.138;9.912;2023-01-01T18:02:57;23.67;;;6.00;;
52740;SDS011;38634;52.138;9.912;2023-01-01T18:05:41;33.35;;;6.55;;
52740;SDS011;38634;52.138;9.912;2023-01-01T18:08:26;48.05;;;10.20;;
52740;SDS011;38634;52.138;9.912;2023-01-01T18:11:11;28.45;;;6.15;;
52740;SDS011;38634;52.138;9.912;2023-01-01T18:14:00;26.90;;;7.57;;
52740;SDS011;38634;52.138;9.912;2023-01-01T18:16:45;51.80;;;10.55;;
52740;SDS011;38634;52.138;9.912;2023-01-01T18:19:30;39.20;;;8.35;;
52740;SDS011;38634;52.138;9.912;2023-01-01T18:22:14;18.05;;;4.00;;
52740;SDS011;38634;52.138;9.912;2023-01-01T18:24:59;25.08;;;4.78;;
52740;SDS011;38634;52.138;9.912;2023-01-01T18:27:44;25.25;;;4.53;;
52740;SDS011;38634;52.138;9.912;2023-01-01T18:30:28;24.00;;;4.65;;
52740;SDS011;38634;52.138;9.912;2023-01-01T18:33:13;21.65;;;4.18;;
52740;SDS011;38634;52.138;9.912;2023-01-01T18:36:01;19.88;;;3.70;;
52740;SDS011;38634;52.138;9.912;2023-01-01T18:42:12;21.02;;;3.85;;
52740;SDS011;38634;52.138;9.912;2023-01-01T18:45:20;20.58;;;3.95;;
52740;SDS011;38634;52.138;9.912;2023-01-01T18:48:11;18.20;;;3.85;;
52740;SDS011;38634;52.138;9.912;2023-01-01T18:50:56;19.58;;;4.00;;
52740;SDS011;38634;52.138;9.912;2023-01-01T18:53:40;17.77;;;3.60;;
52740;SDS011;38634;52.138;9.912;2023-01-01T18:56:25;19.25;;;3.70;;
52740;SDS011;38634;52.138;9.912;2023-01-01T18:59:15;14.52;;;2.95;;
52740;SDS011;38634;52.138;9.912;2023-01-01T19:08:13;14.13;;;3.45;;
52740;SDS011;38634;52.138;9.912;2023-01-01T19:11:01;12.15;;;2.47;;
52740;SDS011;38634;52.138;9.912;2023-01-01T19:13:45;12.77;;;2.70;;
52740;SDS011;38634;52.138;9.912;2023-01-01T19:16:30;14.55;;;3.13;;
52740;SDS011;38634;52.138;9.912;2023-01-01T19:28:29;14.20;;;3.40;;
52740;SDS011;38634;52.138;9.912;2023-01-01T19:31:16;14.38;;;2.97;;
52740;SDS011;38634;52.138;9.912;2023-01-01T19:34:01;16.98;;;4.32;;
52740;SDS011;38634;52.138;9.912;2023-01-01T19:36:46;14.52;;;3.35;;
52740;SDS011;38634;52.138;9.912;2023-01-01T19:39:31;12.77;;;3.13;;
52740;SDS011;38634;52.138;9.912;2023-01-01T19:42:17;10.65;;;2.75;;
52740;SDS011;38634;52.138;9.912;2023-01-01T19:45:01;8.95;;;2.90;;
52740;SDS011;38634;52.138;9.912;2023-01-01T19:47:46;10.93;;;3.03;;
52740;SDS011;38634;52.138;9.912;2023-01-01T19:50:30;12.13;;;4.05;;
52740;SDS011;38634;52.138;9.912;2023-01-01T19:53:15;6.63;;;2.50;;
52740;SDS011;38634;52.138;9.912;2023-01-01T19:56:00;14.60;;;3.25;;
52740;SDS011;38634;52.138;9.912;2023-01-01T19:58:45;10.52;;;3.13;;
52740;SDS011;38634;52.138;9.912;2023-01-01T20:01:30;8.73;;;2.00;;
52740;SDS011;38634;52.138;9.912;2023-01-01T20:04:14;7.47;;;2.80;;
52740;SDS011;38634;52.138;9.912;2023-01-01T20:06:59;9.77;;;2.75;;
52740;SDS011;38634;52.138;9.912;2023-01-01T20:09:43;7.97;;;2.88;;
52740;SDS011;38634;52.138;9.912;2023-01-01T20:12:28;7.60;;;3.00;;
52740;SDS011;38634;52.138;9.912;2023-01-01T20:15:13;12.98;;;2.97;;
52740;SDS011;38634;52.138;9.912;2023-01-01T20:17:58;10.80;;;2.33;;
52740;SDS011;38634;52.138;9.912;2023-01-01T20:20:43;15.60;;;3.13;;
52740;SDS011;38634;52.138;9.912;2023-01-01T20:23:46;13.80;;;2.72;;
52740;SDS011;38634;52.138;9.912;2023-01-01T20:26:31;15.05;;;3.10;;
52740;SDS011;38634;52.138;9.912;2023-01-01T20:29:16;13.13;;;2.67;;
52740;SDS011;38634;52.138;9.912;2023-01-01T20:32:04;8.88;;;2.67;;
52740;SDS011;38634;52.138;9.912;2023-01-01T20:34:55;12.05;;;3.13;;
52740;SDS011;38634;52.138;9.912;2023-01-01T20:37:39;8.88;;;2.72;;
52740;SDS011;38634;52.138;9.912;2023-01-01T20:40:24;11.32;;;2.83;;
52740;SDS011;38634;52.138;9.912;2023-01-01T20:43:09;10.05;;;2.90;;
52740;SDS011;38634;52.138;9.912;2023-01-01T20:45:53;8.95;;;3.28;;
52740;SDS011;38634;52.138;9.912;2023-01-01T20:48:38;15.98;;;3.22;;
52740;SDS011;38634;52.138;9.912;2023-01-01T20:51:22;15.82;;;3.20;;
52740;SDS011;38634;52.138;9.912;2023-01-01T20:54:08;12.65;;;2.90;;
52740;SDS011;38634;52.138;9.912;2023-01-01T20:56:52;8.63;;;2.45;;
52740;SDS011;38634;52.138;9.912;2023-01-01T20:59:37;16.42;;;3.33;;
52740;SDS011;38634;52.138;9.912;2023-01-01T21:02:22;17.45;;;3.80;;
52740;SDS011;38634;52.138;9.912;2023-01-01T21:05:07;14.45;;;3.85;;
52740;SDS011;38634;52.138;9.912;2023-01-01T21:07:54;13.82;;;3.83;;
52740;SDS011;38634;52.138;9.912;2023-01-01T21:10:38;12.45;;;2.60;;
52740;SDS011;38634;52.138;9.912;2023-01-01T21:13:23;15.90;;;3.47;;
52740;SDS011;38634;52.138;9.912;2023-01-01T21:16:18;12.77;;;3.03;;
52740;SDS011;38634;52.138;9.912;2023-01-01T21:19:20;10.07;;;3.20;;
52740;SDS011;38634;52.138;9.912;2023-01-01T21:22:05;9.77;;;2.90;;
52740;SDS011;38634;52.138;9.912;2023-01-01T21:24:52;8.00;;;2.42;;
52740;SDS011;38634;52.138;9.912;2023-01-01T21:27:37;10.93;;;3.10;;
52740;SDS011;38634;52.138;9.912;2023-01-01T21:30:22;9.98;;;2.75;;
52740;SDS011;38634;52.138;9.912;2023-01-01T21:33:12;9.38;;;2.47;;
52740;SDS011;38634;52.138;9.912;2023-01-01T21:36:00;12.30;;;2.53;;
52740;SDS011;38634;52.138;9.912;2023-01-01T21:39:09;12.73;;;2.97;;
52740;SDS011;38634;52.138;9.912;2023-01-01T21:42:17;16.52;;;3.75;;
52740;SDS011;38634;52.138;9.912;2023-01-01T21:45:07;11.90;;;2.88;;
52740;SDS011;38634;52.138;9.912;2023-01-01T21:48:13;15.70;;;3.70;;
52740;SDS011;38634;52.138;9.912;2023-01-01T21:51:04;11.50;;;3.67;;
52740;SDS011;38634;52.138;9.912;2023-01-01T21:56:58;14.23;;;3.22;;
52740;SDS011;38634;52.138;9.912;2023-01-01T21:59:44;8.13;;;2.33;;
52740;SDS011;38634;52.138;9.912;2023-01-01T22:02:33;11.68;;;3.38;;
52740;SDS011;38634;52.138;9.912;2023-01-01T22:05:27;8.35;;;2.97;;
52740;SDS011;38634;52.138;9.912;2023-01-01T22:08:23;11.43;;;3.00;;
52740;SDS011;38634;52.138;9.912;2023-01-01T22:11:23;15.90;;;4.32;;
52740;SDS011;38634;52.138;9.912;2023-01-01T22:14:13;17.77;;;3.60;;
52740;SDS011;38634;52.138;9.912;2023-01-01T22:17:03;11.07;;;2.80;;
52740;SDS011;38634;52.138;9.912;2023-01-01T22:20:18;15.38;;;3.60;;
52740;SDS011;38634;52.138;9.912;2023-01-01T22:26:03;13.80;;;2.90;;
52740;SDS011;38634;52.138;9.912;2023-01-01T22:29:22;14.73;;;3.17;;
52740;SDS011;38634;52.138;9.912;2023-01-01T22:38:13;13.02;;;3.92;;
52740;SDS011;38634;52.138;9.912;2023-01-01T22:41:01;11.77;;;3.22;;
52740;SDS011;38634;52.138;9.912;2023-01-01T22:43:45;9.52;;;2.80;;
52740;SDS011;38634;52.138;9.912;2023-01-01T22:46:35;12.95;;;3.00;;
52740;SDS011;38634;52.138;9.912;2023-01-01T22:49:23;11.23;;;3.00;;
52740;SDS011;38634;52.138;9.912;2023-01-01T22:52:23;12.00;;;3.05;;
52740;SDS011;38634;52.138;9.912;2023-01-01T22:55:08;14.07;;;3.05;;
52740;SDS011;38634;52.138;9.912;2023-01-01T22:57:52;14.90;;;3.60;;
52740;SDS011;38634;52.138;9.912;2023-01-01T23:00:37;13.35;;;2.83;;
52740;SDS011;38634;52.138;9.912;2023-01-01T23:03:21;13.43;;;2.92;;
52740;SDS011;38634;52.138;9.912;2023-01-01T23:06:06;10.50;;;2.80;;
52740;SDS011;38634;52.138;9.912;2023-01-01T23:08:54;12.20;;;3.10;;
52740;SDS011;38634;52.138;9.912;2023-01-01T23:11:38;10.57;;;3.17;;
52740;SDS011;38634;52.138;9.912;2023-01-01T23:14:23;12.98;;;3.00;;
52740;SDS011;38634;52.138;9.912;2023-01-01T23:17:26;10.50;;;2.75;;
52740;SDS011;38634;52.138;9.912;2023-01-01T23:20:11;13.60;;;3.78;;
52740;SDS011;38634;52.138;9.912;2023-01-01T23:22:55;14.90;;;3.17;;
52740;SDS011;38634;52.138;9.912;2023-01-01T23:25:40;13.70;;;3.47;;
52740;SDS011;38634;52.138;9.912;2023-01-01T23:28:26;11.68;;;3.10;;
52740;SDS011;38634;52.138;9.912;2023-01-01T23:31:12;12.93;;;2.97;;
52740;SDS011;38634;52.138;9.912;2023-01-01T23:33:57;18.00;;;4.97;;
52740;SDS011;38634;52.138;9.912;2023-01-01T23:36:42;16.27;;;5.03;;
52740;SDS011;38634;52.138;9.912;2023-01-01T23:39:27;15.15;;;2.85;;
52740;SDS011;38634;52.138;9.912;2023-01-01T23:42:12;15.60;;;3.83;;
52740;SDS011;38634;52.138;9.912;2023-01-01T23:44:56;11.73;;;3.03;;
52740;SDS011;38634;52.138;9.912;2023-01-01T23:47:41;15.70;;;3.58;;
52740;SDS011;38634;52.138;9.912;2023-01-01T23:50:25;12.65;;;3.25;;
52740;SDS011;38634;52.138;9.912;2023-01-01T23:53:10;19.20;;;4.50;;
52740;SDS011;38634;52.138;9.912;2023-01-01T23:55:55;9.93;;;3.28;;
52740;SDS011;38634;52.138;9.912;2023-01-01T23:58:40;15.45;;;4.53;;
